Valentines, Virginia
Current Conditions -  °F | °C
As of 5:36 PM on Sunday 21 Dec 2014 (Local Time) from KAVC Reporting Station
Clear Clear  
Wind Chill: 36°   Ceiling: Unl
Heat Index: 36°   Visibility: 10mi
Dew Point: 31°   Wind: 0mph
Humidity: 82%   Direction: NA
Pressure: 30.32"   Gusts: NA
Location:  36.56°N, 77.85°W
Report Text: KAVC 212236Z AUTO 00000KT 10SM CLR 02/00 A3032 RMK AO2 T00241004
Loading
Personal Weather Stations






























Interactive Weather Map New forecast layout! Learn more

10-Day Weather Forecast

Advertisements
Track Severe Weather on mobile